sensor_id;sensor_type;location;lat;lon;timestamp;pressure;altitude;pressure_sealevel;temperature;humidity
79085;BME280;68486;42.808;23.422;2023-05-17T00:00:15;93585.34;;;13.90;69.73
79085;BME280;68486;42.808;23.422;2023-05-17T00:02:41;93584.78;;;13.88;68.62
79085;BME280;68486;42.808;23.422;2023-05-17T00:19:24;93619.81;;;13.89;69.79
79085;BME280;68486;42.808;23.422;2023-05-17T00:21:49;93624.25;;;13.76;70.07
79085;BME280;68486;42.808;23.422;2023-05-17T00:24:15;93625.72;;;13.72;70.79
79085;BME280;68486;42.808;23.422;2023-05-17T00:26:40;93619.56;;;13.78;70.12
79085;BME280;68486;42.808;23.422;2023-05-17T00:29:05;93600.31;;;13.66;70.29
79085;BME280;68486;42.808;23.422;2023-05-17T00:31:31;93611.28;;;13.63;71.23
79085;BME280;68486;42.808;23.422;2023-05-17T00:33:56;93603.44;;;13.45;72.45
79085;BME280;68486;42.808;23.422;2023-05-17T00:36:22;93593.41;;;13.23;73.53
79085;BME280;68486;42.808;23.422;2023-05-17T00:38:47;93594.84;;;13.38;72.95
79085;BME280;68486;42.808;23.422;2023-05-17T00:41:12;93593.81;;;13.39;73.48
79085;BME280;68486;42.808;23.422;2023-05-17T00:43:38;93582.16;;;13.35;73.36
79085;BME280;68486;42.808;23.422;2023-05-17T00:46:04;93585.91;;;13.39;73.99
79085;BME280;68486;42.808;23.422;2023-05-17T00:48:29;93587.97;;;13.37;74.03
79085;BME280;68486;42.808;23.422;2023-05-17T00:50:55;93591.06;;;13.34;74.12
79085;BME280;68486;42.808;23.422;2023-05-17T00:53:22;93589.09;;;13.29;74.22
79085;BME280;68486;42.808;23.422;2023-05-17T00:55:48;93566.69;;;13.08;74.49
79085;BME280;68486;42.808;23.422;2023-05-17T00:58:14;93592.84;;;13.21;74.80
79085;BME280;68486;42.808;23.422;2023-05-17T01:00:40;93593.44;;;13.05;75.69
79085;BME280;68486;42.808;23.422;2023-05-17T01:03:06;93603.06;;;13.11;76.25
79085;BME280;68486;42.808;23.422;2023-05-17T01:05:32;93603.06;;;13.11;76.49
79085;BME280;68486;42.808;23.422;2023-05-17T01:07:57;93596.41;;;13.09;76.99
79085;BME280;68486;42.808;23.422;2023-05-17T01:10:30;93596.03;;;13.23;77.04
79085;BME280;68486;42.808;23.422;2023-05-17T01:13:14;93600.84;;;13.08;77.90
79085;BME280;68486;42.808;23.422;2023-05-17T01:15:45;93616.22;;;12.93;78.70
79085;BME280;68486;42.808;23.422;2023-05-17T01:18:24;93609.03;;;12.82;79.17
79085;BME280;68486;42.808;23.422;2023-05-17T01:20:54;93610.66;;;12.64;80.29
79085;BME280;68486;42.808;23.422;2023-05-17T01:26:17;93596.63;;;12.34;81.30
79085;BME280;68486;42.808;23.422;2023-05-17T01:28:46;93606.72;;;12.74;79.69
79085;BME280;68486;42.808;23.422;2023-05-17T01:31:13;93582.78;;;12.27;80.67
79085;BME280;68486;42.808;23.422;2023-05-17T01:33:39;93603.44;;;12.17;82.18
79085;BME280;68486;42.808;23.422;2023-05-17T01:36:04;93581.22;;;11.94;83.09
79085;BME280;68486;42.808;23.422;2023-05-17T01:38:30;93597.84;;;11.88;83.13
79085;BME280;68486;42.808;23.422;2023-05-17T01:41:00;93597.41;;;11.91;83.27
79085;BME280;68486;42.808;23.422;2023-05-17T01:43:36;93596.97;;;11.94;83.03
79085;BME280;68486;42.808;23.422;2023-05-17T01:46:21;93605.34;;;11.78;84.10
79085;BME280;68486;42.808;23.422;2023-05-17T01:48:53;93612.47;;;11.71;84.43
79085;BME280;68486;42.808;23.422;2023-05-17T01:51:22;93607.16;;;11.52;85.08
79085;BME280;68486;42.808;23.422;2023-05-17T01:53:54;93606.22;;;11.40;85.47
79085;BME280;68486;42.808;23.422;2023-05-17T01:56:26;93599.41;;;11.32;85.68
79085;BME280;68486;42.808;23.422;2023-05-17T01:58:54;93600.50;;;11.50;85.10
79085;BME280;68486;42.808;23.422;2023-05-17T02:01:21;93597.56;;;11.65;85.32
79085;BME280;68486;42.808;23.422;2023-05-17T02:03:49;93599.03;;;11.92;83.85
79085;BME280;68486;42.808;23.422;2023-05-17T02:06:15;93602.97;;;12.01;83.42
79085;BME280;68486;42.808;23.422;2023-05-17T02:08:40;93603.41;;;11.98;83.87
79085;BME280;68486;42.808;23.422;2023-05-17T02:11:06;93611.16;;;11.86;84.58
79085;BME280;68486;42.808;23.422;2023-05-17T02:13:31;93613.44;;;11.76;84.79
79085;BME280;68486;42.808;23.422;2023-05-17T02:16:00;93614.88;;;11.72;85.40
79085;BME280;68486;42.808;23.422;2023-05-17T02:18:26;93613.41;;;11.51;84.75
79085;BME280;68486;42.808;23.422;2023-05-17T02:20:52;93605.72;;;11.56;85.47
79085;BME280;68486;42.808;23.422;2023-05-17T02:23:17;93610.06;;;11.69;85.47
79085;BME280;68486;42.808;23.422;2023-05-17T02:25:43;93615.03;;;11.84;85.83
79085;BME280;68486;42.808;23.422;2023-05-17T02:28:09;93602.34;;;11.81;85.42
79085;BME280;68486;42.808;23.422;2023-05-17T02:30:34;93617.91;;;11.76;85.37
79085;BME280;68486;42.808;23.422;2023-05-17T02:33:00;93625.97;;;11.81;85.44
79085;BME280;68486;42.808;23.422;2023-05-17T02:35:25;93616.06;;;11.76;85.65
79085;BME280;68486;42.808;23.422;2023-05-17T02:37:51;93608.59;;;11.48;86.17
79085;BME280;68486;42.808;23.422;2023-05-17T02:40:16;93611.13;;;11.30;86.86
79085;BME280;68486;42.808;23.422;2023-05-17T02:42:42;93606.91;;;11.22;87.02
79085;BME280;68486;42.808;23.422;2023-05-17T02:45:07;93607.88;;;11.35;87.39
79085;BME280;68486;42.808;23.422;2023-05-17T02:47:33;93605.47;;;11.33;86.40
79085;BME280;68486;42.808;23.422;2023-05-17T02:49:58;93622.91;;;11.52;86.12
79085;BME280;68486;42.808;23.422;2023-05-17T02:52:23;93616.84;;;11.52;86.73
79085;BME280;68486;42.808;23.422;2023-05-17T02:54:49;93632.44;;;11.40;86.04
79085;BME280;68486;42.808;23.422;2023-05-17T02:57:15;93620.66;;;11.56;86.39
79085;BME280;68486;42.808;23.422;2023-05-17T02:59:41;93614.34;;;11.32;86.03
79085;BME280;68486;42.808;23.422;2023-05-17T03:02:06;93645.06;;;11.56;86.03
79085;BME280;68486;42.808;23.422;2023-05-17T03:04:32;93640.03;;;11.55;86.23
79085;BME280;68486;42.808;23.422;2023-05-17T03:06:57;93640.06;;;11.48;85.69
79085;BME280;68486;42.808;23.422;2023-05-17T03:09:23;93642.72;;;11.42;86.62
79085;BME280;68486;42.808;23.422;2023-05-17T03:11:49;93631.00;;;11.44;86.17
79085;BME280;68486;42.808;23.422;2023-05-17T03:14:14;93643.44;;;11.55;86.21
79085;BME280;68486;42.808;23.422;2023-05-17T03:16:40;93647.28;;;11.59;85.83
79085;BME280;68486;42.808;23.422;2023-05-17T03:19:06;93650.31;;;11.50;86.82
79085;BME280;68486;42.808;23.422;2023-05-17T03:21:31;93648.88;;;11.60;86.13
79085;BME280;68486;42.808;23.422;2023-05-17T03:23:56;93657.34;;;11.56;86.89
79085;BME280;68486;42.808;23.422;2023-05-17T03:26:22;93663.81;;;11.60;86.03
79085;BME280;68486;42.808;23.422;2023-05-17T03:28:48;93661.97;;;11.60;86.53
79085;BME280;68486;42.808;23.422;2023-05-17T03:31:13;93658.84;;;11.45;86.81
79085;BME280;68486;42.808;23.422;2023-05-17T03:33:39;93666.25;;;11.55;86.44
79085;BME280;68486;42.808;23.422;2023-05-17T03:36:04;93666.38;;;11.67;85.63
79085;BME280;68486;42.808;23.422;2023-05-17T03:38:31;93657.78;;;11.53;86.79
79085;BME280;68486;42.808;23.422;2023-05-17T03:40:56;93652.34;;;11.54;86.02
79085;BME280;68486;42.808;23.422;2023-05-17T03:43:22;93659.38;;;11.60;85.94
79085;BME280;68486;42.808;23.422;2023-05-17T03:45:47;93658.09;;;11.70;86.44
79085;BME280;68486;42.808;23.422;2023-05-17T03:48:13;93661.47;;;11.83;85.54
79085;BME280;68486;42.808;23.422;2023-05-17T03:50:38;93659.66;;;11.77;85.53
79085;BME280;68486;42.808;23.422;2023-05-17T03:53:05;93648.34;;;11.77;85.62
79085;BME280;68486;42.808;23.422;2023-05-17T03:55:31;93657.03;;;11.84;85.40
79085;BME280;68486;42.808;23.422;2023-05-17T03:57:56;93659.59;;;11.91;85.12
79085;BME280;68486;42.808;23.422;2023-05-17T04:00:21;93660.22;;;11.86;84.54
79085;BME280;68486;42.808;23.422;2023-05-17T04:02:50;93668.53;;;11.83;85.10
79085;BME280;68486;42.808;23.422;2023-05-17T04:05:16;93670.13;;;11.84;85.22
79085;BME280;68486;42.808;23.422;2023-05-17T04:07:42;93640.78;;;11.62;84.82
79085;BME280;68486;42.808;23.422;2023-05-17T04:10:08;93674.53;;;11.90;84.27
79085;BME280;68486;42.808;23.422;2023-05-17T04:12:35;93683.56;;;11.94;84.91
79085;BME280;68486;42.808;23.422;2023-05-17T04:15:00;93682.94;;;11.99;84.78
79085;BME280;68486;42.808;23.422;2023-05-17T04:17:26;93683.34;;;12.02;84.40
79085;BME280;68486;42.808;23.422;2023-05-17T04:19:52;93676.91;;;11.98;84.31
79085;BME280;68486;42.808;23.422;2023-05-17T04:22:18;93679.66;;;12.10;83.97
79085;BME280;68486;42.808;23.422;2023-05-17T04:24:44;93697.72;;;12.25;83.60
79085;BME280;68486;42.808;23.422;2023-05-17T04:27:09;93691.38;;;12.57;82.61
79085;BME280;68486;42.808;23.422;2023-05-17T04:29:34;93679.00;;;12.83;80.75
79085;BME280;68486;42.808;23.422;2023-05-17T04:32:00;93672.44;;;12.92;79.99
79085;BME280;68486;42.808;23.422;2023-05-17T04:34:25;93690.75;;;13.17;79.67
79085;BME280;68486;42.808;23.422;2023-05-17T04:36:51;93680.91;;;13.12;79.48
79085;BME280;68486;42.808;23.422;2023-05-17T04:39:17;93682.31;;;12.96;80.36
79085;BME280;68486;42.808;23.422;2023-05-17T04:41:42;93680.19;;;13.05;79.78
79085;BME280;68486;42.808;23.422;2023-05-17T04:44:08;93658.72;;;12.90;79.51
79085;BME280;68486;42.808;23.422;2023-05-17T04:46:33;93666.31;;;12.98;79.92
79085;BME280;68486;42.808;23.422;2023-05-17T04:48:59;93670.69;;;13.04;78.56
79085;BME280;68486;42.808;23.422;2023-05-17T04:51:25;93680.22;;;13.17;78.78
79085;BME280;68486;42.808;23.422;2023-05-17T04:53:51;93680.69;;;13.32;78.79
79085;BME280;68486;42.808;23.422;2023-05-17T04:56:17;93651.84;;;13.26;77.84
79085;BME280;68486;42.808;23.422;2023-05-17T04:58:43;93657.38;;;13.36;77.71
79085;BME280;68486;42.808;23.422;2023-05-17T05:01:08;93674.16;;;13.53;77.41
79085;BME280;68486;42.808;23.422;2023-05-17T05:03:33;93678.69;;;13.76;77.11
79085;BME280;68486;42.808;23.422;2023-05-17T05:05:59;93674.59;;;13.80;76.40
79085;BME280;68486;42.808;23.422;2023-05-17T05:08:24;93673.44;;;14.06;75.54
79085;BME280;68486;42.808;23.422;2023-05-17T05:10:50;93688.28;;;14.00;75.17
79085;BME280;68486;42.808;23.422;2023-05-17T05:13:16;93690.16;;;14.23;75.48
79085;BME280;68486;42.808;23.422;2023-05-17T05:15:41;93670.19;;;14.46;74.32
79085;BME280;68486;42.808;23.422;2023-05-17T05:18:07;93683.81;;;14.66;73.99
79085;BME280;68486;42.808;23.422;2023-05-17T05:20:32;93691.34;;;14.27;73.74
79085;BME280;68486;42.808;23.422;2023-05-17T05:22:58;93670.03;;;14.41;73.81
79085;BME280;68486;42.808;23.422;2023-05-17T05:25:25;93690.91;;;14.77;73.12
79085;BME280;68486;42.808;23.422;2023-05-17T05:27:51;93694.25;;;14.96;72.40
79085;BME280;68486;42.808;23.422;2023-05-17T05:30:16;93657.66;;;14.29;72.87
79085;BME280;68486;42.808;23.422;2023-05-17T05:32:47;93688.19;;;14.72;72.86
79085;BME280;68486;42.808;23.422;2023-05-17T05:35:13;93688.06;;;14.67;72.64
79085;BME280;68486;42.808;23.422;2023-05-17T05:37:38;93698.47;;;14.97;73.01
79085;BME280;68486;42.808;23.422;2023-05-17T05:40:04;93673.41;;;14.59;72.21
79085;BME280;68486;42.808;23.422;2023-05-17T05:42:30;93699.28;;;14.98;72.24
79085;BME280;68486;42.808;23.422;2023-05-17T05:44:55;93696.16;;;15.36;70.93
79085;BME280;68486;42.808;23.422;2023-05-17T05:47:20;93696.16;;;15.76;70.26
79085;BME280;68486;42.808;23.422;2023-05-17T05:49:46;93691.34;;;16.18;68.46
79085;BME280;68486;42.808;23.422;2023-05-17T05:52:11;93705.34;;;16.02;69.46
79085;BME280;68486;42.808;23.422;2023-05-17T05:54:36;93704.16;;;16.10;68.97
79085;BME280;68486;42.808;23.422;2023-05-17T05:57:02;93711.53;;;16.24;68.40
79085;BME280;68486;42.808;23.422;2023-05-17T05:59:27;93704.91;;;16.39;67.38
79085;BME280;68486;42.808;23.422;2023-05-17T06:01:53;93702.44;;;16.32;67.86
79085;BME280;68486;42.808;23.422;2023-05-17T06:04:18;93697.28;;;16.42;67.99
79085;BME280;68486;42.808;23.422;2023-05-17T06:06:44;93681.75;;;16.29;66.50
79085;BME280;68486;42.808;23.422;2023-05-17T06:09:10;93710.28;;;16.94;65.51
79085;BME280;68486;42.808;23.422;2023-05-17T06:11:36;93718.47;;;16.76;65.69
79085;BME280;68486;42.808;23.422;2023-05-17T06:14:02;93701.63;;;16.65;66.24
79085;BME280;68486;42.808;23.422;2023-05-17T06:16:28;93723.88;;;17.20;65.00
79085;BME280;68486;42.808;23.422;2023-05-17T06:18:53;93723.81;;;17.53;63.10
79085;BME280;68486;42.808;23.422;2023-05-17T06:21:18;93719.28;;;17.32;63.51
79085;BME280;68486;42.808;23.422;2023-05-17T06:23:44;93719.84;;;17.34;63.09
79085;BME280;68486;42.808;23.422;2023-05-17T06:26:09;93724.78;;;17.47;62.97
79085;BME280;68486;42.808;23.422;2023-05-17T06:28:38;93705.28;;;17.15;63.59
79085;BME280;68486;42.808;23.422;2023-05-17T06:31:03;93734.59;;;17.30;63.09
79085;BME280;68486;42.808;23.422;2023-05-17T06:33:28;93716.75;;;17.42;63.01
79085;BME280;68486;42.808;23.422;2023-05-17T06:35:54;93720.09;;;17.98;61.22
79085;BME280;68486;42.808;23.422;2023-05-17T06:38:20;93731.19;;;17.13;62.19
79085;BME280;68486;42.808;23.422;2023-05-17T06:40:46;93730.31;;;17.24;63.97
79085;BME280;68486;42.808;23.422;2023-05-17T06:43:11;93720.81;;;17.28;63.28
79085;BME280;68486;42.808;23.422;2023-05-17T06:45:37;93730.31;;;17.24;63.00
79085;BME280;68486;42.808;23.422;2023-05-17T06:48:02;93731.59;;;17.82;61.28
79085;BME280;68486;42.808;23.422;2023-05-17T06:50:27;93734.72;;;17.79;62.33
79085;BME280;68486;42.808;23.422;2023-05-17T06:52:53;93739.44;;;17.55;61.79
79085;BME280;68486;42.808;23.422;2023-05-17T06:55:18;93736.53;;;17.56;62.18
79085;BME280;68486;42.808;23.422;2023-05-17T06:57:44;93730.50;;;18.32;60.78
79085;BME280;68486;42.808;23.422;2023-05-17T07:00:09;93721.94;;;18.79;57.69
79085;BME280;68486;42.808;23.422;2023-05-17T07:02:35;93718.41;;;19.05;58.26
79085;BME280;68486;42.808;23.422;2023-05-17T07:05:03;93732.53;;;19.58;58.55
79085;BME280;68486;42.808;23.422;2023-05-17T07:07:29;93727.44;;;18.72;58.52
79085;BME280;68486;42.808;23.422;2023-05-17T07:09:55;93726.44;;;19.15;58.43
79085;BME280;68486;42.808;23.422;2023-05-17T07:12:20;93732.50;;;18.73;57.51
79085;BME280;68486;42.808;23.422;2023-05-17T07:14:46;93732.56;;;19.21;58.22
79085;BME280;68486;42.808;23.422;2023-05-17T07:17:11;93729.03;;;19.05;58.52
79085;BME280;68486;42.808;23.422;2023-05-17T07:19:36;93738.31;;;18.70;60.03
79085;BME280;68486;42.808;23.422;2023-05-17T07:22:02;93739.22;;;18.27;60.76
79085;BME280;68486;42.808;23.422;2023-05-17T07:24:27;93741.41;;;18.62;60.05
79085;BME280;68486;42.808;23.422;2023-05-17T07:26:53;93737.81;;;18.19;61.30
79085;BME280;68486;42.808;23.422;2023-05-17T07:29:18;93747.56;;;18.41;60.79
79085;BME280;68486;42.808;23.422;2023-05-17T07:31:43;93735.66;;;18.16;62.23
79085;BME280;68486;42.808;23.422;2023-05-17T07:34:09;93742.22;;;18.36;62.92
79085;BME280;68486;42.808;23.422;2023-05-17T07:36:34;93736.59;;;18.59;60.34
79085;BME280;68486;42.808;23.422;2023-05-17T07:39:00;93748.50;;;18.84;59.72
79085;BME280;68486;42.808;23.422;2023-05-17T07:41:25;93730.78;;;18.62;59.68
79085;BME280;68486;42.808;23.422;2023-05-17T07:43:51;93734.38;;;19.15;59.75
79085;BME280;68486;42.808;23.422;2023-05-17T07:46:16;93725.69;;;19.25;57.44
79085;BME280;68486;42.808;23.422;2023-05-17T07:48:42;93743.56;;;19.92;57.08
79085;BME280;68486;42.808;23.422;2023-05-17T07:51:07;93737.38;;;20.70;55.11
79085;BME280;68486;42.808;23.422;2023-05-17T07:53:33;93737.09;;;20.97;55.01
79085;BME280;68486;42.808;23.422;2023-05-17T07:55:58;93723.81;;;20.86;53.67
79085;BME280;68486;42.808;23.422;2023-05-17T07:58:23;93740.28;;;20.48;54.55
79085;BME280;68486;42.808;23.422;2023-05-17T08:00:49;93742.41;;;21.27;54.51
79085;BME280;68486;42.808;23.422;2023-05-17T08:03:14;93741.22;;;21.84;52.04
79085;BME280;68486;42.808;23.422;2023-05-17T08:05:40;93739.28;;;22.10;49.88
79085;BME280;68486;42.808;23.422;2023-05-17T08:08:05;93747.06;;;21.86;52.43
79085;BME280;68486;42.808;23.422;2023-05-17T08:10:31;93738.16;;;21.06;53.08
79085;BME280;68486;42.808;23.422;2023-05-17T08:12:57;93742.69;;;21.31;54.01
79085;BME280;68486;42.808;23.422;2023-05-17T08:15:22;93744.28;;;20.91;54.60
79085;BME280;68486;42.808;23.422;2023-05-17T08:17:47;93733.22;;;21.79;52.72
79085;BME280;68486;42.808;23.422;2023-05-17T08:20:13;93738.03;;;22.37;52.05
79085;BME280;68486;42.808;23.422;2023-05-17T08:22:39;93730.78;;;23.21;49.19
79085;BME280;68486;42.808;23.422;2023-05-17T08:25:05;93731.31;;;22.49;49.94
79085;BME280;68486;42.808;23.422;2023-05-17T08:27:31;93731.78;;;22.62;47.05
79085;BME280;68486;42.808;23.422;2023-05-17T08:29:57;93735.22;;;23.01;48.02
79085;BME280;68486;42.808;23.422;2023-05-17T08:32:23;93711.50;;;22.61;49.85
79085;BME280;68486;42.808;23.422;2023-05-17T08:34:49;93724.59;;;23.25;48.41
79085;BME280;68486;42.808;23.422;2023-05-17T08:37:14;93726.19;;;22.14;51.38
79085;BME280;68486;42.808;23.422;2023-05-17T08:39:40;93729.84;;;22.28;49.39
79085;BME280;68486;42.808;23.422;2023-05-17T08:42:06;93728.38;;;21.91;51.60
79085;BME280;68486;42.808;23.422;2023-05-17T08:44:32;93712.69;;;23.13;49.52
79085;BME280;68486;42.808;23.422;2023-05-17T08:46:58;93714.72;;;24.40;47.10
79085;BME280;68486;42.808;23.422;2023-05-17T08:49:26;93722.50;;;23.46;47.40
79085;BME280;68486;42.808;23.422;2023-05-17T08:51:53;93721.16;;;24.39;46.81
79085;BME280;68486;42.808;23.422;2023-05-17T08:54:19;93712.66;;;23.71;49.23
79085;BME280;68486;42.808;23.422;2023-05-17T08:56:46;93721.91;;;23.54;48.25
79085;BME280;68486;42.808;23.422;2023-05-17T08:59:16;93715.97;;;23.62;46.98
79085;BME280;68486;42.808;23.422;2023-05-17T09:01:44;93713.97;;;23.44;49.33
79085;BME280;68486;42.808;23.422;2023-05-17T09:04:12;93707.72;;;23.30;49.23
79085;BME280;68486;42.808;23.422;2023-05-17T09:06:38;93725.53;;;23.69;48.17
79085;BME280;68486;42.808;23.422;2023-05-17T09:09:04;93727.34;;;23.15;48.77
79085;BME280;68486;42.808;23.422;2023-05-17T09:11:32;93722.31;;;22.40;51.11
79085;BME280;68486;42.808;23.422;2023-05-17T09:13:59;93716.25;;;23.03;51.75
79085;BME280;68486;42.808;23.422;2023-05-17T09:16:27;93718.34;;;21.73;52.65
79085;BME280;68486;42.808;23.422;2023-05-17T09:18:54;93721.78;;;23.11;50.40
79085;BME280;68486;42.808;23.422;2023-05-17T09:21:21;93716.63;;;22.91;50.87
79085;BME280;68486;42.808;23.422;2023-05-17T09:23:47;93703.16;;;23.30;48.94
79085;BME280;68486;42.808;23.422;2023-05-17T09:26:12;93699.31;;;23.89;48.91
79085;BME280;68486;42.808;23.422;2023-05-17T09:28:40;93677.03;;;23.27;49.38
79085;BME280;68486;42.808;23.422;2023-05-17T09:31:06;93697.28;;;24.05;47.42
79085;BME280;68486;42.808;23.422;2023-05-17T09:33:33;93708.13;;;24.14;48.25
79085;BME280;68486;42.808;23.422;2023-05-17T09:36:00;93702.97;;;23.99;48.54
79085;BME280;68486;42.808;23.422;2023-05-17T09:38:26;93699.56;;;24.36;47.13
79085;BME280;68486;42.808;23.422;2023-05-17T09:40:52;93701.13;;;23.46;48.62
79085;BME280;68486;42.808;23.422;2023-05-17T09:43:23;93705.72;;;23.70;48.80
79085;BME280;68486;42.808;23.422;2023-05-17T09:45:56;93698.06;;;23.58;50.88
79085;BME280;68486;42.808;23.422;2023-05-17T09:48:24;93690.34;;;23.32;51.52
79085;BME280;68486;42.808;23.422;2023-05-17T09:50:51;93694.56;;;22.75;51.25
79085;BME280;68486;42.808;23.422;2023-05-17T09:53:24;93680.78;;;23.50;50.01
79085;BME280;68486;42.808;23.422;2023-05-17T09:55:52;93695.56;;;22.84;50.25
79085;BME280;68486;42.808;23.422;2023-05-17T09:58:18;93698.16;;;22.95;51.41
79085;BME280;68486;42.808;23.422;2023-05-17T10:00:43;93697.69;;;22.53;52.26
79085;BME280;68486;42.808;23.422;2023-05-17T10:03:12;93683.31;;;23.13;50.61
79085;BME280;68486;42.808;23.422;2023-05-17T10:05:40;93704.72;;;22.73;51.62
79085;BME280;68486;42.808;23.422;2023-05-17T10:08:09;93706.47;;;22.05;53.46
79085;BME280;68486;42.808;23.422;2023-05-17T10:10:35;93691.88;;;21.87;53.82
79085;BME280;68486;42.808;23.422;2023-05-17T10:13:02;93704.44;;;22.36;53.70
79085;BME280;68486;42.808;23.422;2023-05-17T10:15:31;93697.78;;;22.72;52.76
79085;BME280;68486;42.808;23.422;2023-05-17T10:17:58;93663.84;;;21.40;53.81
79085;BME280;68486;42.808;23.422;2023-05-17T10:20:25;93683.59;;;21.93;53.54
79085;BME280;68486;42.808;23.422;2023-05-17T10:22:52;93682.25;;;22.45;53.19
79085;BME280;68486;42.808;23.422;2023-05-17T10:25:18;93685.81;;;22.30;52.93
79085;BME280;68486;42.808;23.422;2023-05-17T10:27:45;93676.03;;;22.55;52.29
79085;BME280;68486;42.808;23.422;2023-05-17T10:30:14;93666.31;;;22.35;52.00
79085;BME280;68486;42.808;23.422;2023-05-17T10:32:41;93661.34;;;21.64;54.18
79085;BME280;68486;42.808;23.422;2023-05-17T10:35:07;93662.66;;;22.21;53.20
79085;BME280;68486;42.808;23.422;2023-05-17T10:37:33;93651.88;;;21.37;54.42
79085;BME280;68486;42.808;23.422;2023-05-17T10:39:59;93641.19;;;21.27;54.86
79085;BME280;68486;42.808;23.422;2023-05-17T10:42:26;93639.19;;;20.68;56.93
79085;BME280;68486;42.808;23.422;2023-05-17T10:44:53;93615.22;;;20.12;58.14
79085;BME280;68486;42.808;23.422;2023-05-17T10:47:18;93636.03;;;20.51;56.88
79085;BME280;68486;42.808;23.422;2023-05-17T10:49:44;93630.66;;;20.71;57.40
79085;BME280;68486;42.808;23.422;2023-05-17T10:52:16;93627.38;;;21.30;55.36
79085;BME280;68486;42.808;23.422;2023-05-17T10:54:43;93623.16;;;21.09;54.50
79085;BME280;68486;42.808;23.422;2023-05-17T10:57:18;93617.00;;;21.18;54.48
79085;BME280;68486;42.808;23.422;2023-05-17T11:00:01;93614.31;;;21.34;53.25
79085;BME280;68486;42.808;23.422;2023-05-17T11:02:30;93592.31;;;22.17;52.50
79085;BME280;68486;42.808;23.422;2023-05-17T11:04:55;93614.16;;;21.64;52.83
79085;BME280;68486;42.808;23.422;2023-05-17T11:07:31;93605.13;;;20.70;55.89
79085;BME280;68486;42.808;23.422;2023-05-17T11:12:31;93600.06;;;21.64;54.29
79085;BME280;68486;42.808;23.422;2023-05-17T11:14:58;93611.69;;;21.18;54.83
79085;BME280;68486;42.808;23.422;2023-05-17T11:17:26;93621.50;;;21.38;54.65
79085;BME280;68486;42.808;23.422;2023-05-17T11:20:01;93610.63;;;21.79;53.97
79085;BME280;68486;42.808;23.422;2023-05-17T11:22:37;93612.16;;;21.41;52.90
79085;BME280;68486;42.808;23.422;2023-05-17T11:25:08;93609.41;;;22.11;52.68
79085;BME280;68486;42.808;23.422;2023-05-17T11:27:52;93614.56;;;21.22;53.54
79085;BME280;68486;42.808;23.422;2023-05-17T11:32:50;93605.53;;;21.88;53.35
79085;BME280;68486;42.808;23.422;2023-05-17T11:35:17;93614.03;;;21.95;52.83
79085;BME280;68486;42.808;23.422;2023-05-17T11:37:43;93618.75;;;22.47;51.35
79085;BME280;68486;42.808;23.422;2023-05-17T11:40:09;93626.59;;;21.84;53.10
79085;BME280;68486;42.808;23.422;2023-05-17T11:42:38;93628.66;;;21.43;53.65
79085;BME280;68486;42.808;23.422;2023-05-17T11:45:04;93638.56;;;21.37;53.22
79085;BME280;68486;42.808;23.422;2023-05-17T11:47:31;93650.59;;;20.23;57.03
79085;BME280;68486;42.808;23.422;2023-05-17T11:50:01;93642.97;;;19.53;56.63
79085;BME280;68486;42.808;23.422;2023-05-17T11:52:28;93653.31;;;19.50;56.95
79085;BME280;68486;42.808;23.422;2023-05-17T11:54:55;93652.91;;;19.83;56.03
79085;BME280;68486;42.808;23.422;2023-05-17T11:57:23;93650.84;;;20.01;54.63
79085;BME280;68486;42.808;23.422;2023-05-17T12:00:02;93649.25;;;20.10;54.69
79085;BME280;68486;42.808;23.422;2023-05-17T12:02:30;93654.09;;;19.45;55.85
79085;BME280;68486;42.808;23.422;2023-05-17T12:04:56;93650.56;;;18.45;58.49
79085;BME280;68486;42.808;23.422;2023-05-17T12:07:22;93634.69;;;18.50;58.22
79085;BME280;68486;42.808;23.422;2023-05-17T12:09:47;93653.09;;;18.99;57.31
79085;BME280;68486;42.808;23.422;2023-05-17T12:12:13;93607.78;;;18.68;56.39
79085;BME280;68486;42.808;23.422;2023-05-17T12:14:42;93640.34;;;19.01;56.05
79085;BME280;68486;42.808;23.422;2023-05-17T12:17:07;93651.97;;;19.42;55.01
79085;BME280;68486;42.808;23.422;2023-05-17T12:19:33;93653.97;;;19.72;54.13
79085;BME280;68486;42.808;23.422;2023-05-17T12:22:09;93643.13;;;19.21;54.38
79085;BME280;68486;42.808;23.422;2023-05-17T12:24:41;93644.41;;;19.81;52.91
79085;BME280;68486;42.808;23.422;2023-05-17T12:27:07;93642.13;;;19.38;55.34
79085;BME280;68486;42.808;23.422;2023-05-17T12:29:33;93643.53;;;19.55;52.62
79085;BME280;68486;42.808;23.422;2023-05-17T12:31:58;93654.56;;;19.32;54.55
79085;BME280;68486;42.808;23.422;2023-05-17T12:34:25;93647.06;;;19.19;55.28
79085;BME280;68486;42.808;23.422;2023-05-17T12:36:52;93626.72;;;19.35;54.70
79085;BME280;68486;42.808;23.422;2023-05-17T12:39:18;93621.38;;;18.77;54.83
79085;BME280;68486;42.808;23.422;2023-05-17T12:41:48;93643.84;;;19.07;54.04
79085;BME280;68486;42.808;23.422;2023-05-17T12:44:19;93640.25;;;18.49;55.65
79085;BME280;68486;42.808;23.422;2023-05-17T12:46:46;93637.75;;;18.37;56.08
79085;BME280;68486;42.808;23.422;2023-05-17T12:49:18;93633.72;;;19.04;54.00
79085;BME280;68486;42.808;23.422;2023-05-17T12:51:46;93638.94;;;19.36;52.43
79085;BME280;68486;42.808;23.422;2023-05-17T12:54:13;93637.59;;;19.38;52.78
79085;BME280;68486;42.808;23.422;2023-05-17T12:56:41;93625.38;;;18.80;54.29
79085;BME280;68486;42.808;23.422;2023-05-17T12:59:11;93637.00;;;19.21;52.05
79085;BME280;68486;42.808;23.422;2023-05-17T13:01:45;93636.44;;;19.71;51.64
79085;BME280;68486;42.808;23.422;2023-05-17T13:04:11;93637.34;;;19.40;53.10
79085;BME280;68486;42.808;23.422;2023-05-17T13:09:17;93632.78;;;18.78;53.41
79085;BME280;68486;42.808;23.422;2023-05-17T13:11:49;93632.16;;;19.65;51.48